createdAt,value
2022-07-29T00:01:48.396Z,4.82
2022-07-29T00:04:17.206Z,3.80
2022-07-29T00:06:46.140Z,4.32
2022-07-29T00:09:14.735Z,4.30
2022-07-29T00:11:44.255Z,4.97
2022-07-29T00:14:13.078Z,3.35
2022-07-29T00:16:42.040Z,3.42
2022-07-29T00:19:10.577Z,3.83
2022-07-29T00:21:39.853Z,5.22
2022-07-29T00:24:08.526Z,4.45
2022-07-29T00:26:37.098Z,4.57
2022-07-29T00:29:32.890Z,4.90
2022-07-29T00:31:54.787Z,4.95
2022-07-29T00:34:41.538Z,5.47
2022-07-29T00:37:10.086Z,5.35
2022-07-29T00:39:38.755Z,3.38
2022-07-29T00:42:07.434Z,4.50
2022-07-29T00:44:40.980Z,3.67
2022-07-29T00:47:11.190Z,7.22
2022-07-29T00:49:42.402Z,5.55
2022-07-29T00:52:12.543Z,5.15
2022-07-29T00:54:44.070Z,4.25
2022-07-29T00:59:42.438Z,7.45
2022-07-29T01:02:11.175Z,4.57
2022-07-29T01:04:40.011Z,6.90
2022-07-29T01:07:09.303Z,5.00
2022-07-29T01:09:46.239Z,4.65
2022-07-29T01:12:19.437Z,5.38
2022-07-29T01:14:48.932Z,5.28
2022-07-29T01:17:55.548Z,6.45
2022-07-29T01:20:31.537Z,5.43
2022-07-29T01:23:11.395Z,6.00
2022-07-29T01:26:20.502Z,7.55
2022-07-29T01:29:08.354Z,5.80
2022-07-29T01:32:01.344Z,5.60
2022-07-29T01:34:50.869Z,7.00
2022-07-29T01:37:32.249Z,5.03
2022-07-29T01:40:04.010Z,5.30
2022-07-29T01:42:45.207Z,7.03
2022-07-29T01:45:21.219Z,8.13
2022-07-29T01:47:56.841Z,7.55
2022-07-29T01:50:32.443Z,7.55
2022-07-29T01:53:08.807Z,5.57
2022-07-29T01:55:42.353Z,6.15
2022-07-29T01:58:13.189Z,8.65
2022-07-29T02:00:43.656Z,7.35
2022-07-29T02:03:14.622Z,5.25
2022-07-29T02:05:47.414Z,4.88
2022-07-29T02:08:17.833Z,6.10
2022-07-29T02:10:48.726Z,7.07
2022-07-29T02:13:19.029Z,5.88
2022-07-29T02:15:48.856Z,4.70
2022-07-29T02:18:20.821Z,8.05
2022-07-29T02:20:56.739Z,6.82
2022-07-29T02:23:26.277Z,7.18
2022-07-29T02:25:58.376Z,7.68
2022-07-29T02:28:29.632Z,4.60
2022-07-29T02:31:04.613Z,5.35
2022-07-29T02:33:34.314Z,5.80
2022-07-29T02:36:05.122Z,6.63
2022-07-29T02:38:57.637Z,7.25
2022-07-29T02:41:31.815Z,7.13
2022-07-29T02:44:07.283Z,6.53
2022-07-29T02:46:38.953Z,6.25
2022-07-29T02:49:11.659Z,8.25
2022-07-29T02:51:56.299Z,5.75
2022-07-29T02:54:41.687Z,6.75
2022-07-29T02:57:25.001Z,4.53
2022-07-29T02:59:57.286Z,6.07
2022-07-29T03:02:28.004Z,6.00
2022-07-29T03:05:00.119Z,5.45
2022-07-29T03:07:29.966Z,7.22
2022-07-29T03:10:02.291Z,6.00
2022-07-29T03:12:32.424Z,8.80
2022-07-29T03:15:01.670Z,4.63
2022-07-29T03:17:30.181Z,5.68
2022-07-29T03:19:58.887Z,6.90
2022-07-29T03:22:28.262Z,3.83
2022-07-29T03:24:56.871Z,5.15
2022-07-29T03:27:25.418Z,3.72
2022-07-29T03:29:53.694Z,5.25
2022-07-29T03:32:25.087Z,4.93
2022-07-29T03:34:53.648Z,4.95
2022-07-29T03:37:22.152Z,4.10
2022-07-29T03:39:53.307Z,4.03
2022-07-29T03:42:25.479Z,6.78
2022-07-29T03:44:54.903Z,5.03
2022-07-29T03:47:39.331Z,6.07
2022-07-29T03:50:17.627Z,5.90
2022-07-29T03:52:46.137Z,4.55
2022-07-29T03:55:14.733Z,2.67
2022-07-29T03:57:43.833Z,7.07
2022-07-29T04:00:12.969Z,5.05
2022-07-29T04:02:42.117Z,6.43
2022-07-29T04:05:15.677Z,4.65
2022-07-29T04:07:50.984Z,5.85
2022-07-29T04:10:30.299Z,3.58
2022-07-29T04:13:01.604Z,4.65
2022-07-29T04:15:31.330Z,3.67
2022-07-29T04:18:01.200Z,4.67
2022-07-29T04:20:29.458Z,3.05
2022-07-29T04:22:58.169Z,4.95
2022-07-29T04:25:26.406Z,3.83
2022-07-29T04:28:03.582Z,2.47
2022-07-29T04:30:34.167Z,5.32
2022-07-29T04:33:04.423Z,3.63
2022-07-29T04:35:37.940Z,3.70
2022-07-29T04:38:15.597Z,3.55
2022-07-29T04:40:49.761Z,3.53
2022-07-29T04:43:23.318Z,3.35
2022-07-29T04:45:52.223Z,2.85
2022-07-29T04:48:28.472Z,5.07
2022-07-29T04:50:58.710Z,3.65
2022-07-29T04:53:27.489Z,2.90
2022-07-29T04:55:55.868Z,4.20
2022-07-29T04:58:25.396Z,4.32
2022-07-29T05:00:53.687Z,3.95
2022-07-29T05:03:22.081Z,3.42
2022-07-29T05:05:50.537Z,3.25
2022-07-29T05:08:19.433Z,3.97
2022-07-29T05:10:48.116Z,6.38
2022-07-29T05:13:18.258Z,5.72
2022-07-29T05:15:46.554Z,2.58
2022-07-29T05:18:15.943Z,4.07
2022-07-29T05:20:44.348Z,3.65
2022-07-29T05:23:14.609Z,3.03
2022-07-29T05:25:44.572Z,2.30
2022-07-29T05:28:13.834Z,1.50
2022-07-29T05:30:42.660Z,2.78
2022-07-29T05:33:35.978Z,3.03
2022-07-29T05:36:00.844Z,4.47
2022-07-29T05:38:29.647Z,3.00
2022-07-29T05:41:00.692Z,3.42
2022-07-29T05:43:30.252Z,3.13
2022-07-29T05:45:59.381Z,2.25
2022-07-29T05:48:27.993Z,3.05
2022-07-29T05:50:57.089Z,2.50
2022-07-29T05:53:25.633Z,2.90
2022-07-29T05:55:54.403Z,2.00
2022-07-29T05:58:23.089Z,3.10
2022-07-29T06:00:51.698Z,1.70
2022-07-29T06:03:20.236Z,2.55
2022-07-29T06:05:48.617Z,2.28
2022-07-29T06:08:17.131Z,3.65
2022-07-29T06:10:45.518Z,3.50
2022-07-29T06:13:14.625Z,1.55
2022-07-29T06:15:43.221Z,2.50
2022-07-29T06:18:12.575Z,2.55
2022-07-29T06:20:42.517Z,3.47
2022-07-29T06:23:12.037Z,2.67
2022-07-29T06:25:42.789Z,2.58
2022-07-29T06:28:11.761Z,2.70
2022-07-29T06:30:41.221Z,5.28
2022-07-29T06:33:10.445Z,2.67
2022-07-29T06:35:42.631Z,2.42
2022-07-29T06:38:33.838Z,3.13
2022-07-29T06:41:07.735Z,3.13
2022-07-29T06:43:50.207Z,2.75
2022-07-29T06:46:22.091Z,2.80
2022-07-29T06:48:51.591Z,4.88
2022-07-29T06:51:22.510Z,2.95
2022-07-29T06:53:59.448Z,2.05
2022-07-29T06:56:32.555Z,5.95
2022-07-29T06:59:07.382Z,3.85
2022-07-29T07:01:35.903Z,2.80
2022-07-29T07:04:05.511Z,3.38
2022-07-29T07:06:33.901Z,4.72
2022-07-29T07:09:05.406Z,3.72
2022-07-29T07:11:34.480Z,2.45
2022-07-29T07:14:05.565Z,2.03
2022-07-29T07:16:34.263Z,1.35
2022-07-29T07:19:02.941Z,2.65
2022-07-29T07:21:31.956Z,3.15
2022-07-29T07:24:01.682Z,2.55
2022-07-29T07:26:30.632Z,6.20
2022-07-29T07:28:59.068Z,4.28
2022-07-29T07:31:27.530Z,4.75
2022-07-29T07:33:55.852Z,3.38
2022-07-29T07:36:25.039Z,2.10
2022-07-29T07:38:53.294Z,2.75
2022-07-29T07:41:24.717Z,1.98
2022-07-29T07:43:53.038Z,1.95
2022-07-29T07:46:21.424Z,2.67
2022-07-29T07:48:53.191Z,1.80
2022-07-29T07:51:22.612Z,1.80
2022-07-29T07:53:54.008Z,3.03
2022-07-29T07:56:23.208Z,2.67
2022-07-29T07:58:51.688Z,2.33
2022-07-29T08:01:21.599Z,2.35
2022-07-29T08:03:50.278Z,3.42
2022-07-29T08:06:19.304Z,3.33
2022-07-29T08:08:47.916Z,1.75
2022-07-29T08:11:16.667Z,2.53
2022-07-29T08:13:45.671Z,1.40
2022-07-29T08:16:14.541Z,2.10
2022-07-29T08:18:44.479Z,2.47
2022-07-29T08:21:14.759Z,2.08
2022-07-29T08:23:58.459Z,4.07
2022-07-29T08:26:29.239Z,1.35
2022-07-29T08:28:57.568Z,2.08
2022-07-29T08:31:25.906Z,2.47
2022-07-29T08:33:54.390Z,2.85
2022-07-29T08:36:22.807Z,1.08
2022-07-29T08:38:51.429Z,3.35
2022-07-29T08:41:21.237Z,2.42
2022-07-29T08:43:51.218Z,2.17
2022-07-29T08:46:20.368Z,1.90
2022-07-29T08:48:50.155Z,1.25
2022-07-29T08:51:21.285Z,3.72
2022-07-29T08:53:52.001Z,1.20
2022-07-29T08:56:24.299Z,1.52
2022-07-29T08:58:52.785Z,3.33
2022-07-29T09:01:36.225Z,0.60
2022-07-29T09:04:13.634Z,1.48
2022-07-29T09:06:48.257Z,2.00
2022-07-29T09:09:16.853Z,1.25
2022-07-29T09:11:46.144Z,2.88
2022-07-29T09:14:15.736Z,1.77
2022-07-29T09:16:53.541Z,2.05
2022-07-29T09:19:31.121Z,2.40
2022-07-29T09:22:07.102Z,3.60
2022-07-29T09:24:49.792Z,3.58
2022-07-29T09:27:28.553Z,2.58
2022-07-29T09:30:16.622Z,1.52
2022-07-29T09:33:03.027Z,2.42
2022-07-29T09:35:34.436Z,1.55
2022-07-29T09:38:15.984Z,1.90
2022-07-29T09:40:57.802Z,1.63
2022-07-29T09:43:31.800Z,0.88
2022-07-29T09:46:16.545Z,1.75
2022-07-29T09:48:45.220Z,2.22
2022-07-29T09:51:37.621Z,2.78
2022-07-29T09:54:30.119Z,2.83
2022-07-29T09:59:28.443Z,2.25
2022-07-29T10:01:57.620Z,1.77
2022-07-29T10:04:26.336Z,1.75
2022-07-29T10:07:04.731Z,2.30
2022-07-29T10:09:34.592Z,2.40
2022-07-29T10:12:15.731Z,1.27
2022-07-29T10:14:44.647Z,2.10
2022-07-29T10:17:13.715Z,1.80
2022-07-29T10:19:42.091Z,1.38
2022-07-29T10:22:12.229Z,2.25
2022-07-29T10:24:41.199Z,0.95
2022-07-29T10:27:11.256Z,2.38
2022-07-29T10:29:39.751Z,3.47
2022-07-29T10:32:29.420Z,1.80
2022-07-29T10:35:03.411Z,1.30
2022-07-29T10:37:35.999Z,1.60
2022-07-29T10:40:59.009Z,1.20
2022-07-29T10:43:42.315Z,1.63
2022-07-29T10:46:12.942Z,1.85
2022-07-29T10:49:12.030Z,0.63
2022-07-29T10:51:53.014Z,2.88
2022-07-29T10:54:42.279Z,1.92
2022-07-29T11:00:11.054Z,1.95
2022-07-29T11:02:44.600Z,1.10
2022-07-29T11:05:25.369Z,2.47
2022-07-29T11:08:19.486Z,2.92
2022-07-29T11:10:50.518Z,2.00
2022-07-29T11:13:50.022Z,1.70
2022-07-29T11:16:21.353Z,2.30
2022-07-29T11:19:14.474Z,2.10
2022-07-29T11:22:05.167Z,1.10
2022-07-29T11:24:34.852Z,1.85
2022-07-29T11:27:11.222Z,0.88
2022-07-29T11:30:05.613Z,0.80
2022-07-29T11:32:44.910Z,2.22
2022-07-29T11:38:28.560Z,1.00
2022-07-29T11:41:37.935Z,1.30
2022-07-29T11:44:08.923Z,1.95
2022-07-29T11:46:51.473Z,1.95
2022-07-29T11:49:31.665Z,1.30
2022-07-29T11:52:05.040Z,1.35
2022-07-29T11:54:38.969Z,2.53
2022-07-29T12:00:14.465Z,1.98
2022-07-29T12:02:48.067Z,2.13
2022-07-29T12:05:36.019Z,2.45
2022-07-29T12:07:01.567Z,1.88
2022-07-29T12:07:03.797Z,3.22
2022-07-29T12:08:15.800Z,1.83
2022-07-29T12:10:45.671Z,2.15
2022-07-29T12:13:16.548Z,2.47
2022-07-29T12:15:53.561Z,1.88
2022-07-29T12:18:24.153Z,2.05
2022-07-29T12:21:06.630Z,1.05
2022-07-29T12:23:35.787Z,2.25
2022-07-29T12:26:11.056Z,3.20
2022-07-29T12:28:51.063Z,1.70
2022-07-29T12:31:42.180Z,1.15
2022-07-29T12:34:15.274Z,2.03
2022-07-29T12:36:46.567Z,2.38
2022-07-29T12:41:54.201Z,1.95
2022-07-29T12:44:53.429Z,1.17
2022-07-29T12:47:26.331Z,0.95
2022-07-29T12:50:26.171Z,2.55
2022-07-29T12:52:55.594Z,1.88
2022-07-29T12:55:53.559Z,1.30
2022-07-29T12:58:58.014Z,3.20
2022-07-29T13:23:03.191Z,3.58
2022-07-29T13:26:24.752Z,2.45
2022-07-29T13:28:54.225Z,1.45
2022-07-29T13:31:23.987Z,0.98
2022-07-29T13:33:52.464Z,2.72
2022-07-29T13:36:21.642Z,1.23
2022-07-29T13:47:32.692Z,2.40
2022-07-29T13:50:22.629Z,1.35
2022-07-29T13:52:52.538Z,1.98
2022-07-29T13:55:21.436Z,1.85
2022-07-29T14:02:25.753Z,1.48
2022-07-29T14:05:21.686Z,1.75
2022-07-29T14:11:26.650Z,1.50
2022-07-29T14:14:07.556Z,1.55
2022-07-29T14:16:52.551Z,2.75
2022-07-29T14:19:20.928Z,1.13
2022-07-29T14:24:37.365Z,1.58
2022-07-29T14:25:21.257Z,3.30
2022-07-29T14:27:55.113Z,0.77
2022-07-29T14:30:26.925Z,4.03
2022-07-29T14:32:57.996Z,1.58
2022-07-29T14:35:26.319Z,1.40
2022-07-29T14:37:54.920Z,1.30
2022-07-29T14:40:23.278Z,1.73
2022-07-29T14:42:51.452Z,1.85
2022-07-29T14:45:19.845Z,1.75
2022-07-29T14:47:48.182Z,0.93
2022-07-29T14:50:16.442Z,2.03
2022-07-29T14:52:51.515Z,3.22
2022-07-29T14:55:20.354Z,2.67
2022-07-29T14:57:49.283Z,1.17
2022-07-29T15:00:18.220Z,2.25
2022-07-29T15:03:01.317Z,2.25
2022-07-29T15:05:31.697Z,1.33
2022-07-29T15:08:00.815Z,1.80
2022-07-29T15:10:29.972Z,2.30
2022-07-29T15:12:58.830Z,0.90
2022-07-29T15:15:27.641Z,3.42
2022-07-29T15:17:56.019Z,1.92
2022-07-29T15:20:27.082Z,1.08
2022-07-29T15:22:57.584Z,1.95
2022-07-29T15:25:26.395Z,1.67
2022-07-29T15:28:01.213Z,1.63
2022-07-29T15:30:33.270Z,2.13
2022-07-29T15:33:04.567Z,1.27
2022-07-29T15:35:33.011Z,3.30
2022-07-29T15:38:01.942Z,1.88
2022-07-29T15:40:30.569Z,0.73
2022-07-29T15:43:02.510Z,1.73
2022-07-29T15:45:31.645Z,2.35
2022-07-29T15:48:00.481Z,1.48
2022-07-29T15:50:28.778Z,1.35
2022-07-29T15:52:57.024Z,2.60
2022-07-29T15:55:25.420Z,2.25
2022-07-29T15:57:57.188Z,2.67
2022-07-29T16:00:31.158Z,0.70
2022-07-29T16:03:02.128Z,2.90
2022-07-29T16:05:30.606Z,0.77
2022-07-29T16:08:00.594Z,0.77
2022-07-29T16:10:31.724Z,1.48
2022-07-29T16:15:34.947Z,2.58
2022-07-29T16:18:06.022Z,1.85
2022-07-29T16:20:34.290Z,3.08
2022-07-29T16:23:02.630Z,1.45
2022-07-29T16:25:58.779Z,1.33
2022-07-29T16:28:22.393Z,2.05
2022-07-29T16:30:52.064Z,1.25
2022-07-29T16:33:20.638Z,0.90
2022-07-29T16:35:48.920Z,0.90
2022-07-29T16:38:18.013Z,1.17
2022-07-29T16:40:46.406Z,0.82
2022-07-29T16:43:15.041Z,2.88
2022-07-29T16:45:45.989Z,1.65
2022-07-29T16:48:18.749Z,3.40
2022-07-29T16:50:52.839Z,0.90
2022-07-29T16:53:21.163Z,1.80
2022-07-29T16:55:49.492Z,0.93
2022-07-29T16:58:22.185Z,0.30
2022-07-29T17:00:50.597Z,0.60
2022-07-29T17:03:23.437Z,0.88
2022-07-29T17:05:53.982Z,1.13
2022-07-29T17:08:23.639Z,2.97
2022-07-29T17:10:52.156Z,1.27
2022-07-29T17:13:20.638Z,1.95
2022-07-29T17:16:02.892Z,1.83
2022-07-29T17:18:31.273Z,0.52
2022-07-29T17:21:01.524Z,2.63
2022-07-29T17:23:31.777Z,0.43
2022-07-29T17:26:00.067Z,0.77
2022-07-29T17:28:28.289Z,1.25
2022-07-29T17:30:56.669Z,2.15
2022-07-29T17:33:25.202Z,1.58
2022-07-29T17:36:11.992Z,0.80
2022-07-29T17:38:47.085Z,2.42
2022-07-29T17:41:16.209Z,1.10
2022-07-29T17:43:44.591Z,2.08
2022-07-29T17:46:13.089Z,1.02
2022-07-29T17:48:44.136Z,1.70
2022-07-29T17:53:46.257Z,0.77
2022-07-29T17:56:14.954Z,1.63
2022-07-29T17:58:48.260Z,2.35
2022-07-29T18:01:17.422Z,0.82
2022-07-29T18:03:46.391Z,1.05
2022-07-29T18:06:15.015Z,0.40
2022-07-29T18:08:48.323Z,1.20
2022-07-29T18:11:17.239Z,1.75
2022-07-29T18:13:45.526Z,1.08
2022-07-29T18:16:13.942Z,1.63
2022-07-29T18:18:42.467Z,1.63
2022-07-29T18:21:10.941Z,1.15
2022-07-29T18:23:41.887Z,0.93
2022-07-29T18:26:11.063Z,0.63
2022-07-29T18:28:39.381Z,1.80
2022-07-29T18:31:08.420Z,1.13
2022-07-29T18:33:39.794Z,0.70
2022-07-29T18:36:11.659Z,0.60
2022-07-29T18:38:42.208Z,1.67
2022-07-29T18:41:10.579Z,1.08
2022-07-29T18:43:39.049Z,0.90
2022-07-29T18:46:07.639Z,0.88
2022-07-29T18:48:36.051Z,0.98
2022-07-29T18:51:09.371Z,1.05
2022-07-29T18:53:38.504Z,1.35
2022-07-29T18:56:06.905Z,1.35
2022-07-29T18:58:35.261Z,1.33
2022-07-29T19:01:03.639Z,1.55
2022-07-29T19:03:35.319Z,1.17
2022-07-29T19:06:03.674Z,1.92
2022-07-29T19:08:35.868Z,1.70
2022-07-29T19:11:04.319Z,2.53
2022-07-29T19:13:44.948Z,1.35
2022-07-29T19:16:19.416Z,2.22
2022-07-29T19:18:48.295Z,2.38
2022-07-29T19:21:16.546Z,1.65
2022-07-29T19:24:06.425Z,2.05
2022-07-29T19:26:47.668Z,2.22
2022-07-29T19:29:19.010Z,2.88
2022-07-29T19:31:50.310Z,1.67
2022-07-29T19:34:18.504Z,1.30
2022-07-29T19:36:49.736Z,1.58
2022-07-29T19:39:47.784Z,1.30
2022-07-29T19:45:00.894Z,1.60
2022-07-29T19:50:34.271Z,1.63
2022-07-29T19:54:19.218Z,1.70
2022-07-29T20:02:19.618Z,1.73
2022-07-29T20:04:48.235Z,3.10
2022-07-29T20:17:01.298Z,2.17
2022-07-29T20:20:18.269Z,2.47
2022-07-29T20:25:54.609Z,2.97
2022-07-29T20:29:11.534Z,3.83
2022-07-29T20:36:21.305Z,2.22
2022-07-29T20:38:54.669Z,4.75
2022-07-29T20:41:47.751Z,2.92
2022-07-29T20:44:21.823Z,2.83
2022-07-29T20:46:50.199Z,2.60
2022-07-29T20:49:21.677Z,3.90
2022-07-29T20:51:50.148Z,2.85
2022-07-29T20:57:03.193Z,2.53
2022-07-29T21:02:52.579Z,3.38
2022-07-29T21:05:21.018Z,3.45
2022-07-29T21:07:49.322Z,5.05
2022-07-29T21:10:20.700Z,2.83
2022-07-29T21:12:53.792Z,3.10
2022-07-29T21:15:22.971Z,4.32
2022-07-29T21:17:56.152Z,3.10
2022-07-29T21:20:28.144Z,2.38
2022-07-29T21:23:01.500Z,2.45
2022-07-29T21:29:20.230Z,2.42
2022-07-29T21:32:29.713Z,2.65
2022-07-29T21:36:02.063Z,2.28
2022-07-29T21:38:50.667Z,3.10
2022-07-29T21:41:20.963Z,3.22
2022-07-29T21:44:22.635Z,1.97
2022-07-29T21:47:19.590Z,3.30
2022-07-29T22:27:29.747Z,1.70
